createdAt,value
2022-09-15T00:01:09.968Z,13.53
2022-09-15T00:03:44.313Z,13.54
2022-09-15T00:06:11.146Z,13.53
2022-09-15T00:08:38.937Z,13.53
2022-09-15T00:11:09.527Z,13.54
2022-09-15T00:13:38.652Z,13.53
2022-09-15T00:16:06.822Z,13.53
2022-09-15T00:18:34.643Z,13.53
2022-09-15T00:21:12.039Z,13.52
2022-09-15T00:23:39.257Z,13.52
2022-09-15T00:26:12.020Z,13.53
2022-09-15T00:28:39.475Z,13.53
2022-09-15T00:31:12.187Z,13.53
2022-09-15T00:33:41.148Z,13.52
2022-09-15T00:36:11.333Z,13.51
2022-09-15T00:38:41.424Z,13.50
2022-09-15T00:41:10.873Z,13.49
2022-09-15T00:44:02.246Z,13.48
2022-09-15T00:46:33.312Z,13.49
2022-09-15T00:49:17.887Z,13.50
2022-09-15T00:51:48.681Z,13.50
2022-09-15T00:54:26.483Z,13.49
2022-09-15T00:56:56.507Z,13.47
2022-09-15T00:59:27.980Z,13.47
2022-09-15T01:02:12.232Z,13.46
2022-09-15T01:04:39.151Z,13.45
2022-09-15T01:07:09.164Z,13.43
2022-09-15T01:09:49.561Z,13.40
2022-09-15T01:12:16.438Z,13.38
2022-09-15T01:14:43.136Z,13.38
2022-09-15T01:17:54.990Z,13.37
2022-09-15T01:20:37.893Z,13.34
2022-09-15T01:23:16.954Z,13.32
2022-09-15T01:25:45.921Z,13.31
2022-09-15T01:28:29.621Z,13.31
2022-09-15T01:31:03.665Z,13.30
2022-09-15T01:33:39.912Z,13.30
2022-09-15T01:36:21.361Z,13.30
2022-09-15T01:39:02.107Z,13.29
2022-09-15T01:41:55.447Z,13.29
2022-09-15T01:44:49.402Z,13.30
2022-09-15T01:47:19.828Z,13.31
2022-09-15T01:49:51.681Z,13.32
2022-09-15T01:52:21.351Z,13.34
2022-09-15T01:54:53.270Z,13.35
2022-09-15T01:57:21.510Z,13.36
2022-09-15T01:59:50.203Z,13.37
2022-09-15T02:02:35.295Z,13.38
2022-09-15T02:05:10.759Z,13.38
2022-09-15T02:07:49.754Z,13.39
2022-09-15T02:10:24.219Z,13.40
2022-09-15T02:12:59.405Z,13.41
2022-09-15T02:15:32.901Z,13.44
2022-09-15T02:18:03.455Z,13.45
2022-09-15T02:20:38.422Z,13.45
2022-09-15T02:23:24.271Z,13.46
2022-09-15T02:25:56.704Z,13.45
2022-09-15T02:28:30.711Z,13.47
2022-09-15T02:30:59.162Z,13.49
2022-09-15T02:33:31.743Z,13.51
2022-09-15T02:35:58.949Z,13.55
2022-09-15T02:38:29.654Z,13.57
2022-09-15T02:40:56.536Z,13.60
2022-09-15T02:43:23.540Z,13.62
2022-09-15T02:45:53.410Z,13.66
2022-09-15T02:48:21.518Z,13.69
2022-09-15T02:50:49.410Z,13.71
2022-09-15T02:53:16.072Z,13.75
2022-09-15T02:55:42.893Z,13.78
2022-09-15T02:58:09.958Z,13.80
2022-09-15T03:00:38.726Z,13.82
2022-09-15T03:03:05.510Z,13.83
2022-09-15T03:05:35.227Z,13.84
2022-09-15T03:08:02.452Z,13.86
2022-09-15T03:10:32.206Z,13.87
2022-09-15T03:12:58.935Z,13.88
2022-09-15T03:15:26.327Z,13.90
2022-09-15T03:17:53.772Z,13.92
2022-09-15T03:20:27.653Z,13.93
2022-09-15T03:22:54.708Z,13.93
2022-09-15T03:25:21.520Z,13.96
2022-09-15T03:27:48.162Z,13.98
2022-09-15T03:30:18.283Z,13.99
2022-09-15T03:32:44.977Z,14.00
2022-09-15T03:35:11.734Z,14.02
2022-09-15T03:37:38.520Z,14.04
2022-09-15T03:40:06.068Z,14.06
2022-09-15T03:42:32.827Z,14.07
2022-09-15T03:44:59.636Z,14.10
2022-09-15T03:47:26.481Z,14.13
2022-09-15T03:49:53.026Z,14.15
2022-09-15T03:52:19.686Z,14.18
2022-09-15T03:54:48.266Z,14.20
2022-09-15T03:57:15.014Z,14.23
2022-09-15T03:59:42.061Z,14.27
2022-09-15T04:02:08.773Z,14.29
2022-09-15T04:04:36.340Z,14.31
2022-09-15T04:07:03.015Z,14.33
2022-09-15T04:09:30.852Z,14.36
2022-09-15T04:11:57.539Z,14.38
2022-09-15T04:14:24.200Z,14.41
2022-09-15T04:16:50.845Z,14.43
2022-09-15T04:19:17.539Z,14.45
2022-09-15T04:21:45.179Z,14.47
2022-09-15T04:24:11.997Z,14.49
2022-09-15T04:26:38.934Z,14.51
2022-09-15T04:29:13.025Z,14.54
2022-09-15T04:31:39.798Z,14.56
2022-09-15T04:34:06.426Z,14.59
2022-09-15T04:36:33.333Z,14.60
2022-09-15T04:39:00.086Z,14.62
2022-09-15T04:41:27.682Z,14.64
2022-09-15T04:43:54.736Z,14.66
2022-09-15T04:46:21.725Z,14.67
2022-09-15T04:48:49.037Z,14.69
2022-09-15T04:51:18.868Z,14.71
2022-09-15T04:53:47.640Z,14.73
2022-09-15T04:56:17.921Z,14.74
2022-09-15T04:58:50.862Z,14.75
2022-09-15T05:01:25.385Z,14.80
2022-09-15T05:03:52.584Z,14.83
2022-09-15T05:06:22.989Z,14.87
2022-09-15T05:08:52.219Z,14.91
2022-09-15T05:11:19.503Z,14.97
2022-09-15T05:13:47.401Z,15.03
2022-09-15T05:16:16.836Z,15.09
2022-09-15T05:18:46.363Z,15.16
2022-09-15T05:21:15.597Z,15.21
2022-09-15T05:23:43.151Z,15.26
2022-09-15T05:26:17.142Z,15.31
2022-09-15T05:28:44.373Z,15.35
2022-09-15T05:31:17.631Z,15.38
2022-09-15T05:33:45.974Z,15.42
2022-09-15T05:36:14.648Z,15.44
2022-09-15T05:38:42.058Z,15.47
2022-09-15T05:41:16.439Z,15.50
2022-09-15T05:43:45.935Z,15.54
2022-09-15T05:46:13.687Z,15.57
2022-09-15T05:48:40.973Z,15.59
2022-09-15T05:51:08.286Z,15.61
2022-09-15T05:53:36.075Z,15.63
2022-09-15T05:56:10.069Z,15.64
2022-09-15T05:58:43.458Z,15.66
2022-09-15T06:01:16.986Z,15.69
2022-09-15T06:03:44.026Z,15.74
2022-09-15T06:06:11.639Z,15.77
2022-09-15T06:08:44.249Z,15.81
2022-09-15T06:11:15.033Z,15.83
2022-09-15T06:13:43.769Z,15.88
2022-09-15T06:16:13.728Z,15.92
2022-09-15T06:18:41.898Z,15.96
2022-09-15T06:21:11.856Z,16.02
2022-09-15T06:23:39.681Z,16.09
2022-09-15T06:26:17.916Z,16.16
2022-09-15T06:28:57.153Z,16.22
2022-09-15T06:31:26.889Z,16.30
2022-09-15T06:33:57.191Z,16.37
2022-09-15T06:36:26.733Z,16.46
2022-09-15T06:38:54.656Z,16.54
2022-09-15T06:41:21.955Z,16.65
2022-09-15T06:43:48.943Z,16.78
2022-09-15T06:46:21.903Z,16.92
2022-09-15T06:48:50.717Z,17.07
2022-09-15T06:51:20.179Z,17.25
2022-09-15T06:53:47.972Z,17.47
2022-09-15T06:56:17.580Z,17.75
2022-09-15T06:58:48.808Z,18.11
2022-09-15T07:01:21.978Z,18.53
2022-09-15T07:03:50.624Z,18.87
2022-09-15T07:06:18.570Z,19.14
2022-09-15T07:08:56.847Z,19.37
2022-09-15T07:11:24.999Z,19.54
2022-09-15T07:13:52.225Z,19.61
2022-09-15T07:16:20.496Z,19.61
2022-09-15T07:18:51.398Z,19.56
2022-09-15T07:21:19.900Z,19.50
2022-09-15T07:23:48.195Z,19.38
2022-09-15T07:26:19.542Z,19.27
2022-09-15T07:28:49.730Z,19.14
2022-09-15T07:31:20.175Z,19.00
2022-09-15T07:33:49.106Z,18.92
2022-09-15T07:36:17.083Z,18.88
2022-09-15T07:38:47.353Z,18.86
2022-09-15T07:41:17.771Z,18.87
2022-09-15T07:43:50.916Z,18.87
2022-09-15T07:46:19.629Z,18.85
2022-09-15T07:48:48.520Z,18.81
2022-09-15T07:51:16.782Z,18.77
2022-09-15T07:53:48.114Z,18.78
2022-09-15T07:56:20.542Z,18.79
2022-09-15T07:58:51.898Z,18.81
2022-09-15T08:01:26.535Z,18.83
2022-09-15T08:03:54.007Z,18.85
2022-09-15T08:06:24.259Z,18.85
2022-09-15T08:08:59.347Z,18.84
2022-09-15T08:11:28.491Z,18.79
2022-09-15T08:13:55.576Z,18.83
2022-09-15T08:16:24.015Z,18.96
2022-09-15T08:18:55.003Z,19.15
2022-09-15T08:21:27.850Z,19.40
2022-09-15T08:24:01.139Z,19.64
2022-09-15T08:26:30.028Z,19.84
2022-09-15T08:29:03.507Z,20.03
2022-09-15T08:31:30.337Z,20.19
2022-09-15T08:33:59.868Z,20.31
2022-09-15T08:36:55.839Z,20.45
2022-09-15T08:39:24.381Z,20.57
2022-09-15T08:42:11.811Z,20.68
2022-09-15T08:45:18.410Z,20.79
2022-09-15T08:47:51.034Z,20.90
2022-09-15T08:50:27.868Z,20.99
2022-09-15T08:53:02.923Z,21.08
2022-09-15T08:56:20.658Z,21.16
2022-09-15T08:58:50.673Z,21.26
2022-09-15T09:01:40.584Z,21.35
2022-09-15T09:04:21.385Z,21.44
2022-09-15T09:06:53.917Z,21.51
2022-09-15T09:09:39.842Z,21.64
2022-09-15T09:12:33.862Z,21.75
2022-09-15T09:15:31.420Z,21.86
2022-09-15T09:18:21.594Z,21.97
2022-09-15T09:20:58.332Z,22.11
2022-09-15T09:23:28.873Z,22.21
2022-09-15T09:26:04.779Z,22.27
2022-09-15T09:29:12.238Z,22.35
2022-09-15T09:31:40.450Z,22.40
2022-09-15T09:34:20.064Z,22.47
2022-09-15T09:36:57.405Z,22.52
2022-09-15T09:39:26.349Z,22.58
2022-09-15T09:41:54.220Z,22.66
2022-09-15T09:44:31.039Z,22.73
2022-09-15T09:47:01.792Z,22.79
2022-09-15T09:49:47.594Z,22.92
2022-09-15T09:52:33.658Z,23.01
2022-09-15T09:55:22.960Z,23.15
2022-09-15T09:57:50.522Z,23.31
2022-09-15T10:00:33.122Z,23.44
2022-09-15T10:03:16.638Z,23.53
2022-09-15T10:05:45.658Z,23.61
2022-09-15T10:08:18.889Z,23.67
2022-09-15T10:10:55.374Z,23.74
2022-09-15T10:13:22.212Z,23.82
2022-09-15T10:15:59.437Z,23.88
2022-09-15T10:18:27.947Z,23.96
2022-09-15T10:20:58.656Z,24.00
2022-09-15T10:23:31.016Z,24.03
2022-09-15T10:26:19.439Z,24.07
2022-09-15T10:29:18.079Z,24.13
2022-09-15T10:31:46.182Z,24.12
2022-09-15T10:34:32.407Z,24.10
2022-09-15T10:37:31.349Z,24.18
2022-09-15T10:40:00.948Z,24.29
2022-09-15T10:42:51.252Z,24.45
2022-09-15T10:45:39.842Z,24.69
2022-09-15T10:52:51.104Z,25.07
2022-09-15T10:55:53.546Z,25.21
2022-09-15T10:58:43.517Z,25.28
2022-09-15T11:01:57.099Z,25.33
2022-09-15T11:04:32.913Z,25.40
2022-09-15T11:07:12.577Z,25.46
2022-09-15T11:09:47.565Z,25.51
2022-09-15T11:12:47.558Z,25.70
2022-09-15T11:15:14.815Z,25.84
2022-09-15T11:18:20.355Z,25.97
2022-09-15T11:21:12.175Z,26.08
2022-09-15T11:24:56.134Z,26.11
2022-09-15T11:28:02.969Z,26.11
2022-09-15T11:30:37.154Z,26.09
2022-09-15T11:33:19.892Z,26.12
2022-09-15T11:36:08.535Z,26.14
2022-09-15T11:39:02.222Z,26.14
2022-09-15T11:41:41.242Z,26.11
2022-09-15T11:44:17.702Z,26.17
2022-09-15T11:47:16.787Z,26.37
2022-09-15T11:50:07.181Z,26.65
2022-09-15T11:52:36.804Z,26.86
2022-09-15T11:55:32.645Z,27.14
2022-09-15T11:58:21.862Z,27.35
2022-09-15T12:01:01.489Z,27.50
2022-09-15T12:03:36.788Z,27.64
2022-09-15T12:06:12.894Z,27.83
2022-09-15T12:08:57.821Z,28.03
2022-09-15T12:11:28.030Z,28.15
2022-09-15T12:13:59.482Z,28.28
2022-09-15T12:16:35.759Z,28.47
2022-09-15T12:19:37.078Z,28.71
2022-09-15T12:22:25.734Z,28.95
2022-09-15T12:25:01.344Z,29.22
2022-09-15T12:27:29.828Z,29.36
2022-09-15T12:30:00.786Z,29.50
2022-09-15T12:32:47.779Z,29.58
2022-09-15T12:35:23.844Z,29.66
2022-09-15T12:37:59.959Z,29.75
2022-09-15T12:40:36.024Z,29.67
2022-09-15T12:43:27.488Z,29.53
2022-09-15T12:45:58.041Z,29.47
2022-09-15T12:48:28.879Z,29.51
2022-09-15T12:51:02.540Z,29.60
2022-09-15T12:57:37.252Z,29.64
2022-09-15T13:06:09.710Z,29.63
2022-09-15T13:08:36.313Z,29.50
2022-09-15T13:11:13.724Z,29.37
2022-09-15T13:13:43.199Z,29.25
2022-09-15T13:16:43.124Z,29.23
2022-09-15T13:19:32.872Z,29.22
2022-09-15T13:22:10.126Z,29.28
2022-09-15T13:24:42.706Z,29.30
2022-09-15T13:27:11.528Z,29.25
2022-09-15T13:29:46.419Z,29.20
2022-09-15T13:32:37.429Z,29.17
2022-09-15T13:35:42.470Z,29.13
2022-09-15T13:38:31.922Z,29.11
2022-09-15T13:41:50.474Z,29.07
2022-09-15T13:44:38.311Z,28.92
2022-09-15T13:47:37.809Z,28.83
2022-09-15T13:50:32.631Z,28.73
2022-09-15T13:53:23.611Z,28.65
2022-09-15T13:55:55.137Z,28.62
2022-09-15T14:01:12.678Z,28.50
2022-09-15T14:03:47.746Z,28.48
2022-09-15T14:06:22.955Z,28.43
2022-09-15T14:08:55.240Z,28.42
2022-09-15T14:11:32.585Z,28.41
2022-09-15T14:14:00.410Z,28.36
2022-09-15T14:16:27.494Z,28.30
2022-09-15T14:18:57.841Z,28.26
2022-09-15T14:21:28.880Z,28.16
2022-09-15T14:24:02.041Z,27.94
2022-09-15T14:26:32.730Z,27.71
2022-09-15T14:32:01.355Z,27.20
2022-09-15T14:34:38.138Z,27.04
2022-09-15T14:37:19.206Z,26.89
2022-09-15T14:39:50.941Z,26.75
2022-09-15T14:42:22.095Z,26.64
2022-09-15T14:47:39.412Z,26.40
2022-09-15T14:50:11.860Z,26.30
2022-09-15T14:52:42.690Z,26.23
2022-09-15T14:55:31.453Z,26.18
2022-09-15T14:58:12.991Z,26.14
2022-09-15T15:00:57.017Z,26.09
2022-09-15T15:03:29.711Z,26.02
2022-09-15T15:06:28.338Z,25.92
2022-09-15T15:09:01.342Z,25.84
2022-09-15T15:11:31.055Z,25.74
2022-09-15T15:13:58.825Z,25.63
2022-09-15T15:16:28.523Z,25.51
2022-09-15T15:18:56.673Z,25.40
2022-09-15T15:21:47.812Z,25.30
2022-09-15T15:24:19.393Z,25.25
2022-09-15T15:26:49.064Z,25.25
2022-09-15T15:29:49.032Z,25.30
2022-09-15T15:32:21.139Z,25.34
2022-09-15T15:34:55.457Z,25.31
2022-09-15T15:37:31.809Z,25.26
2022-09-15T15:40:06.811Z,25.22
2022-09-15T15:42:34.143Z,25.17
2022-09-15T15:45:19.987Z,25.09
2022-09-15T15:47:46.926Z,25.02
2022-09-15T15:50:20.585Z,24.94
2022-09-15T15:52:49.237Z,24.89
2022-09-15T15:55:20.550Z,24.87
2022-09-15T15:57:50.387Z,24.83
2022-09-15T16:00:46.062Z,24.77
2022-09-15T16:03:14.983Z,24.71
2022-09-15T16:06:21.886Z,24.65
2022-09-15T16:08:50.592Z,24.55
2022-09-15T16:11:24.210Z,24.45
2022-09-15T16:13:53.431Z,24.38
2022-09-15T16:16:45.079Z,24.31
2022-09-15T16:19:13.015Z,24.23
2022-09-15T16:21:41.904Z,24.15
2022-09-15T16:24:37.818Z,24.07
2022-09-15T16:27:16.629Z,23.95
2022-09-15T16:29:53.470Z,23.85
2022-09-15T16:32:22.888Z,23.76
2022-09-15T16:34:52.183Z,23.68
2022-09-15T16:37:19.003Z,23.59
2022-09-15T16:39:45.943Z,23.51
2022-09-15T16:42:15.102Z,23.42
2022-09-15T16:44:42.479Z,23.32
2022-09-15T16:47:09.429Z,23.23
2022-09-15T16:49:38.701Z,23.14
2022-09-15T16:52:10.427Z,23.05
2022-09-15T16:54:37.662Z,22.98
2022-09-15T16:57:21.513Z,22.91
2022-09-15T16:59:58.726Z,22.84
2022-09-15T17:02:26.152Z,22.78
2022-09-15T17:04:57.423Z,22.73
2022-09-15T17:07:27.061Z,22.69
2022-09-15T17:13:34.274Z,22.59
2022-09-15T17:20:18.004Z,22.45
2022-09-15T17:27:10.990Z,22.31
2022-09-15T17:29:52.149Z,22.27
2022-09-15T17:32:30.641Z,22.21
2022-09-15T17:35:02.759Z,22.15
2022-09-15T17:37:29.977Z,22.07
2022-09-15T17:39:59.102Z,22.00
2022-09-15T17:42:29.426Z,21.93
2022-09-15T17:44:59.299Z,21.83
2022-09-15T17:47:35.225Z,21.74
2022-09-15T17:50:07.290Z,21.65
2022-09-15T17:52:34.575Z,21.59
2022-09-15T17:55:02.208Z,21.53
2022-09-15T17:57:29.419Z,21.48
2022-09-15T17:59:56.335Z,21.41
2022-09-15T18:02:23.381Z,21.34
2022-09-15T18:04:54.147Z,21.27
2022-09-15T18:08:07.149Z,21.19
2022-09-15T18:10:44.276Z,21.10
2022-09-15T18:13:22.610Z,21.04
2022-09-15T18:16:11.335Z,20.99
2022-09-15T18:18:42.491Z,20.91
2022-09-15T18:21:32.394Z,20.83
2022-09-15T18:24:51.652Z,20.76
2022-09-15T18:27:26.034Z,20.67
2022-09-15T18:29:54.391Z,20.60
2022-09-15T18:32:49.678Z,20.54
2022-09-15T18:35:52.810Z,20.47
2022-09-15T18:38:37.075Z,20.34
2022-09-15T18:41:11.169Z,20.29
2022-09-15T18:43:40.432Z,20.22
2022-09-15T18:46:10.539Z,20.17
2022-09-15T18:48:37.458Z,20.11
2022-09-15T18:51:58.923Z,20.05
2022-09-15T18:54:26.447Z,19.94
2022-09-15T18:57:00.981Z,19.86
2022-09-15T18:59:42.587Z,19.78
2022-09-15T19:02:14.599Z,19.69
2022-09-15T19:04:42.813Z,19.61
2022-09-15T19:07:13.128Z,19.54
2022-09-15T19:10:17.067Z,19.47
2022-09-15T19:12:54.571Z,19.41
2022-09-15T19:15:34.625Z,19.35
2022-09-15T19:18:10.596Z,19.30
2022-09-15T19:21:53.437Z,19.27
2022-09-15T19:24:22.068Z,19.24
2022-09-15T19:26:49.112Z,19.24
2022-09-15T19:29:16.065Z,19.24
2022-09-15T19:31:43.372Z,19.24
2022-09-15T19:34:10.569Z,19.26
2022-09-15T19:36:37.805Z,19.27
2022-09-15T19:39:06.048Z,19.29
2022-09-15T19:41:35.800Z,19.31
2022-09-15T19:44:10.639Z,19.34
2022-09-15T19:46:37.889Z,19.35
2022-09-15T19:49:04.974Z,19.35
2022-09-15T19:51:31.798Z,19.35
2022-09-15T19:53:59.173Z,19.36
2022-09-15T19:56:27.789Z,19.33
2022-09-15T19:58:57.197Z,19.36
2022-09-15T20:01:27.452Z,19.34
2022-09-15T20:03:56.079Z,19.34
2022-09-15T20:06:27.759Z,19.34
2022-09-15T20:08:58.584Z,19.33
2022-09-15T20:11:26.868Z,19.33
2022-09-15T20:13:54.863Z,19.32
2022-09-15T20:16:23.674Z,19.31
2022-09-15T20:18:53.518Z,19.31
2022-09-15T20:21:45.770Z,19.31
2022-09-15T20:24:11.596Z,19.29
2022-09-15T20:26:40.550Z,19.28
2022-09-15T20:29:07.922Z,19.24
2022-09-15T20:31:35.145Z,19.21
2022-09-15T20:34:02.133Z,19.19
2022-09-15T20:36:32.893Z,19.17
2022-09-15T20:39:02.881Z,19.15
2022-09-15T20:41:33.666Z,19.12
2022-09-15T20:44:10.490Z,19.10
2022-09-15T20:46:37.753Z,19.07
2022-09-15T20:49:05.379Z,19.05
2022-09-15T20:51:34.789Z,19.03
2022-09-15T20:54:03.801Z,19.03
2022-09-15T20:56:34.385Z,19.00
2022-09-15T20:59:03.849Z,19.01
2022-09-15T21:01:36.631Z,19.00
2022-09-15T21:04:05.780Z,19.00
2022-09-15T21:06:35.673Z,18.98
2022-09-15T21:09:03.782Z,18.97
2022-09-15T21:11:31.748Z,18.95
2022-09-15T21:14:00.109Z,18.92
2022-09-15T21:16:28.098Z,18.90
2022-09-15T21:18:58.004Z,18.88
2022-09-15T21:21:29.989Z,18.84
2022-09-15T21:24:03.021Z,18.80
2022-09-15T21:26:57.483Z,18.79
2022-09-15T21:29:25.863Z,18.77
2022-09-15T21:31:55.271Z,18.76
2022-09-15T21:34:23.405Z,18.76
2022-09-15T21:36:51.135Z,18.75
2022-09-15T21:39:17.879Z,18.75
2022-09-15T21:41:47.069Z,18.75
2022-09-15T21:44:13.794Z,18.75
2022-09-15T21:46:40.523Z,18.75
2022-09-15T21:49:07.717Z,18.75
2022-09-15T21:51:34.443Z,18.75
2022-09-15T21:54:01.493Z,18.76
2022-09-15T21:56:29.588Z,18.76
2022-09-15T21:58:56.683Z,18.75
2022-09-15T22:01:26.150Z,18.75
2022-09-15T22:04:05.600Z,18.75
2022-09-15T22:06:35.004Z,18.74
2022-09-15T22:09:05.677Z,18.74
2022-09-15T22:11:33.188Z,18.73
2022-09-15T22:14:02.249Z,18.73
2022-09-15T22:16:29.947Z,18.71
2022-09-15T22:18:56.983Z,18.69
2022-09-15T22:21:27.716Z,18.66
2022-09-15T22:23:58.865Z,18.63
2022-09-15T22:26:27.938Z,18.60
2022-09-15T22:28:55.643Z,18.58
2022-09-15T22:31:27.054Z,18.56
2022-09-15T22:33:54.487Z,18.55
2022-09-15T22:36:28.923Z,18.54
2022-09-15T22:39:03.295Z,18.55
2022-09-15T22:41:32.737Z,18.53
2022-09-15T22:43:59.586Z,18.52
2022-09-15T22:46:26.364Z,18.50
2022-09-15T22:48:53.026Z,18.48
2022-09-15T22:51:19.701Z,18.46
2022-09-15T22:53:46.669Z,18.43
2022-09-15T22:56:19.313Z,18.40
2022-09-15T22:58:47.896Z,18.38
2022-09-15T23:01:19.991Z,18.35
2022-09-15T23:03:55.704Z,18.32
2022-09-15T23:06:23.510Z,18.29
2022-09-15T23:08:52.130Z,18.26
2022-09-15T23:11:19.628Z,18.22
2022-09-15T23:13:46.580Z,18.18
2022-09-15T23:16:13.412Z,18.17
2022-09-15T23:18:40.057Z,18.14
2022-09-15T23:21:08.895Z,18.11
2022-09-15T23:23:38.043Z,18.08
2022-09-15T23:26:06.875Z,18.05
2022-09-15T23:28:34.063Z,18.03
2022-09-15T23:31:01.048Z,18.00
2022-09-15T23:33:30.617Z,17.96
2022-09-15T23:36:06.348Z,17.93
2022-09-15T23:38:38.027Z,17.91
2022-09-15T23:41:05.044Z,17.87
2022-09-15T23:43:32.705Z,17.84
2022-09-15T23:46:00.371Z,17.80
2022-09-15T23:48:27.727Z,17.76
2022-09-15T23:50:54.568Z,17.71
2022-09-15T23:53:21.279Z,17.68
2022-09-15T23:55:48.092Z,17.64
2022-09-15T23:58:14.860Z,17.61
